KABR

Aberdeen Regional Airport

Aberdeen, South Dakota, USA
KABR 260540Z 2606/2706 18011KT P6SM BKN200 FM260900 36017G26KT P6SM BKN200 FM261400 34022G32KT P6SM SCT250 FM270200 VRB04KT P6SM SKC
Issued Valid From Valid To
Apr-26 @ 05:40 UTC
(22 minutes ago)
Apr-26 @ 06:00 UTC
(2 minutes ago)
Apr-27 @ 06:00 UTC
(in 24 hours)
Apr-26 @ 06:00 to Apr-26 @ 09:00
KABR 260540Z 2606/2706 18011KT P6SM BKN200
Wind Visibility Clouds
180° at 11 knots Greater than 6 miles
  • Broken at 20,000' AGL
From Apr-26 @ 09:00 to Apr-26 @ 14:00
FM260900 36017G26KT P6SM BKN200
Wind Visibility Clouds
360° at 17 knots
 Gusting to 26 knots
Greater than 6 miles
  • Broken at 20,000' AGL
From Apr-26 @ 14:00 to Apr-27 @ 02:00
FM261400 34022G32KT P6SM SCT250
Wind Visibility Clouds
340° at 22 knots
 Gusting to 32 knots
Greater than 6 miles
  • Scattered at 25,000' AGL
From Apr-27 @ 02:00 to Apr-27 @ 06:00
FM270200 VRB04KT P6SM SKC
Wind Visibility Clouds
Variable at 4 knots Greater than 6 miles
  • Clear skies
KABR 260540Z 2606/2706 18011KT P6SM BKN200 FM260900 36017G26KT P6SM BKN200 FM261400 34022G32KT P6SM SCT250 FM270200 VRB04KT P6SM SKC
Issued Apr-26 @ 05:40 UTC
(22 minutes ago)
Valid From Apr-26 @ 06:00 UTC
(2 minutes ago)
Valid To Apr-27 @ 06:00 UTC
(in 24 hours)
Apr-26 @ 06:00 - Apr-26 @ 09:00
Wind Visibility
180° at 11 knots Greater than 6 miles
Clouds
  • Broken at 20,000' AGL
From Apr-26 @ 09:00 - Apr-26 @ 14:00
Wind Visibility
360° at 17 knots
 Gusting to 26 knots
Greater than 6 miles
Clouds
  • Broken at 20,000' AGL
From Apr-26 @ 14:00 - Apr-27 @ 02:00
Wind Visibility
340° at 22 knots
 Gusting to 32 knots
Greater than 6 miles
Clouds
  • Scattered at 25,000' AGL
From Apr-27 @ 02:00 - Apr-27 @ 06:00
Wind Visibility
Variable at 4 knots Greater than 6 miles
Clouds
  • Clear skies